createdAt,value
2019-02-07T00:00:14.614Z,89.04
2019-02-07T00:02:50.657Z,88.10
2019-02-07T00:05:22.403Z,87.74
2019-02-07T00:07:53.891Z,87.03
2019-02-07T00:10:25.399Z,86.56
2019-02-07T00:12:58.806Z,86.32
2019-02-07T00:15:30.482Z,86.00
2019-02-07T00:18:01.966Z,86.63
2019-02-07T00:20:33.433Z,86.76
2019-02-07T00:23:05.018Z,87.66
2019-02-07T00:25:37.040Z,87.06
2019-02-07T00:28:10.987Z,86.48
2019-02-07T00:30:42.457Z,86.02
2019-02-07T00:33:13.889Z,85.73
2019-02-07T00:35:46.270Z,85.21
2019-02-07T00:38:18.729Z,87.31
2019-02-07T00:40:50.205Z,86.17
2019-02-07T00:43:23.156Z,86.96
2019-02-07T00:45:54.853Z,86.77
2019-02-07T00:48:28.386Z,87.28
2019-02-07T00:50:59.834Z,87.68
2019-02-07T00:53:31.235Z,87.38
2019-02-07T00:56:02.718Z,87.24
2019-02-07T00:58:34.269Z,86.00
2019-02-07T01:01:05.928Z,86.48
2019-02-07T01:03:37.675Z,86.23
2019-02-07T01:06:09.646Z,87.79
2019-02-07T01:08:41.159Z,86.91
2019-02-07T01:11:14.334Z,86.97
2019-02-07T01:13:46.403Z,87.88
2019-02-07T01:16:19.353Z,88.00
2019-02-07T01:18:50.888Z,88.58
2019-02-07T01:21:22.342Z,88.16
2019-02-07T01:23:54.937Z,88.42
2019-02-07T01:26:26.674Z,88.13
2019-02-07T01:28:58.176Z,88.25
2019-02-07T01:31:29.613Z,88.29
2019-02-07T01:34:02.665Z,87.56
2019-02-07T01:36:34.142Z,87.67
2019-02-07T01:39:09.327Z,88.40
2019-02-07T01:41:40.833Z,87.80
2019-02-07T01:44:13.873Z,87.91
2019-02-07T01:46:47.106Z,87.75
2019-02-07T01:49:18.595Z,88.30
2019-02-07T01:51:51.939Z,88.62
2019-02-07T01:54:23.441Z,88.25
2019-02-07T01:56:55.375Z,88.66
2019-02-07T01:59:26.826Z,88.87
2019-02-07T02:01:58.330Z,87.66
2019-02-07T02:04:29.892Z,90.34
2019-02-07T02:07:01.368Z,89.89
2019-02-07T02:09:32.866Z,89.43
2019-02-07T02:12:04.888Z,89.47
2019-02-07T02:14:37.462Z,88.81
2019-02-07T02:17:08.921Z,88.61
2019-02-07T02:19:40.434Z,88.37
2019-02-07T02:22:11.916Z,88.44
2019-02-07T02:24:45.222Z,88.53
2019-02-07T02:27:16.572Z,88.88
2019-02-07T02:29:48.095Z,89.70
2019-02-07T02:32:21.868Z,88.79
2019-02-07T02:34:53.355Z,88.46
2019-02-07T02:37:27.557Z,88.70
2019-02-07T02:40:01.470Z,89.31
2019-02-07T02:42:33.090Z,88.83
2019-02-07T02:45:05.527Z,89.60
2019-02-07T02:47:37.065Z,90.99
2019-02-07T02:50:11.590Z,91.41
2019-02-07T02:52:43.264Z,91.02
2019-02-07T02:55:21.878Z,88.49
2019-02-07T02:57:53.349Z,88.75
2019-02-07T03:00:33.502Z,88.33
2019-02-07T03:03:19.088Z,87.43
2019-02-07T03:06:04.718Z,86.54
2019-02-07T03:08:52.690Z,88.37
2019-02-07T03:11:48.418Z,90.01
2019-02-07T03:14:35.794Z,89.32
2019-02-07T03:17:14.366Z,89.45
2019-02-07T03:19:55.728Z,89.94
2019-02-07T03:22:46.374Z,88.64
2019-02-07T03:25:35.339Z,87.33
2019-02-07T03:28:24.552Z,87.08
2019-02-07T03:31:13.931Z,87.88
2019-02-07T03:34:10.235Z,86.96
2019-02-07T03:37:05.478Z,87.10
2019-02-07T03:39:43.588Z,87.16
2019-02-07T03:42:32.838Z,85.85
2019-02-07T03:45:28.048Z,86.71
2019-02-07T03:48:23.762Z,87.01
2019-02-07T03:51:14.566Z,86.58
2019-02-07T03:54:07.866Z,86.54
2019-02-07T03:57:05.804Z,87.02
2019-02-07T03:59:58.944Z,88.38
2019-02-07T04:02:55.362Z,87.65
2019-02-07T04:05:43.233Z,87.71
2019-02-07T04:08:32.535Z,86.72
2019-02-07T04:11:24.008Z,86.85
2019-02-07T04:14:26.520Z,86.54
2019-02-07T04:17:10.767Z,85.73
2019-02-07T04:20:01.403Z,85.90
2019-02-07T04:22:43.732Z,86.19
2019-02-07T04:25:43.579Z,86.73
2019-02-07T04:28:40.098Z,86.43
2019-02-07T04:31:26.905Z,86.37
2019-02-07T04:34:15.953Z,86.31
2019-02-07T04:37:02.895Z,86.57
2019-02-07T04:39:51.249Z,87.29
2019-02-07T04:42:56.618Z,87.11
2019-02-07T04:45:45.619Z,86.43
2019-02-07T04:48:30.717Z,87.78
2019-02-07T04:51:41.242Z,87.85
2019-02-07T04:54:31.966Z,86.34
2019-02-07T04:57:22.387Z,89.19
2019-02-07T05:00:16.171Z,88.51
2019-02-07T05:03:06.927Z,88.43
2019-02-07T05:06:15.941Z,88.21
2019-02-07T05:09:14.440Z,88.49
2019-02-07T05:12:16.759Z,88.05
2019-02-07T05:14:56.159Z,87.96
2019-02-07T05:17:55.655Z,87.49
2019-02-07T05:20:48.773Z,89.36
2019-02-07T05:23:41.997Z,88.85
2019-02-07T05:26:31.822Z,87.85
2019-02-07T05:29:28.181Z,87.14
2019-02-07T05:32:23.933Z,87.08
2019-02-07T05:35:14.109Z,85.99
2019-02-07T05:37:55.615Z,87.16
2019-02-07T05:41:04.093Z,87.23
2019-02-07T05:43:48.185Z,89.03
2019-02-07T05:46:50.777Z,89.50
2019-02-07T05:49:25.867Z,87.92
2019-02-07T05:52:31.014Z,89.39
2019-02-07T05:55:33.651Z,88.08
2019-02-07T05:58:19.071Z,86.89
2019-02-07T06:01:09.694Z,87.14
2019-02-07T06:03:56.995Z,86.94
2019-02-07T06:06:40.560Z,86.97
2019-02-07T06:09:30.668Z,87.28
2019-02-07T06:12:19.885Z,86.66
2019-02-07T06:15:08.957Z,85.83
2019-02-07T06:18:00.381Z,86.69
2019-02-07T06:20:58.954Z,87.66
2019-02-07T06:23:58.379Z,86.47
2019-02-07T06:26:47.611Z,87.04
2019-02-07T06:29:36.757Z,87.46
2019-02-07T06:32:17.565Z,87.76
2019-02-07T06:35:06.232Z,86.00
2019-02-07T06:37:55.986Z,86.58
2019-02-07T06:40:46.792Z,85.70
2019-02-07T06:43:43.436Z,85.04
2019-02-07T06:46:32.360Z,84.99
2019-02-07T06:49:21.775Z,84.71
2019-02-07T06:52:10.048Z,85.07
2019-02-07T06:54:52.315Z,84.11
2019-02-07T06:57:54.747Z,85.36
2019-02-07T07:00:47.068Z,84.82
2019-02-07T07:03:26.153Z,84.28
2019-02-07T07:06:22.581Z,83.71
2019-02-07T07:09:13.039Z,83.14
2019-02-07T07:12:03.351Z,82.80
2019-02-07T07:14:52.427Z,82.43
2019-02-07T07:17:51.752Z,82.35
2019-02-07T07:20:39.679Z,82.14
2019-02-07T07:23:35.990Z,81.94
2019-02-07T07:26:41.513Z,81.56
2019-02-07T07:29:47.150Z,81.50
2019-02-07T07:32:43.136Z,81.33
2019-02-07T07:35:32.339Z,80.83
2019-02-07T07:38:17.774Z,81.21
2019-02-07T07:41:11.045Z,81.32
2019-02-07T07:44:10.742Z,81.78
2019-02-07T07:47:01.018Z,81.39
2019-02-07T07:49:58.506Z,80.43
2019-02-07T07:52:51.852Z,79.81
2019-02-07T07:55:36.650Z,81.26
2019-02-07T07:58:26.113Z,80.66
2019-02-07T08:01:13.888Z,81.33
2019-02-07T08:03:54.116Z,82.49
2019-02-07T08:06:32.752Z,82.22
2019-02-07T08:09:38.263Z,82.92
2019-02-07T08:12:17.521Z,82.14
2019-02-07T08:15:07.882Z,81.92
2019-02-07T08:18:00.953Z,81.57
2019-02-07T08:20:42.438Z,81.08
2019-02-07T08:23:48.114Z,80.88
2019-02-07T08:26:42.298Z,81.03
2019-02-07T08:29:44.752Z,79.84
2019-02-07T08:32:34.351Z,80.47
2019-02-07T08:35:24.052Z,79.91
2019-02-07T08:38:08.377Z,80.53
2019-02-07T08:41:07.149Z,79.81
2019-02-07T08:44:06.734Z,80.68
2019-02-07T08:46:57.868Z,79.79
2019-02-07T08:49:48.576Z,80.08
2019-02-07T08:52:37.632Z,79.38
2019-02-07T08:55:34.976Z,79.67
2019-02-07T08:58:19.359Z,80.29
2019-02-07T09:01:15.590Z,80.50
2019-02-07T09:03:53.986Z,79.42
2019-02-07T09:06:44.388Z,79.36
2019-02-07T09:09:33.730Z,78.75
2019-02-07T09:12:21.922Z,80.09
2019-02-07T09:15:15.660Z,80.04
2019-02-07T09:18:16.248Z,79.29
2019-02-07T09:21:05.533Z,77.74
2019-02-07T09:23:54.822Z,75.90
2019-02-07T09:26:57.572Z,74.12
2019-02-07T09:30:00.327Z,75.35
2019-02-07T09:32:53.704Z,76.20
2019-02-07T09:35:46.112Z,78.58
2019-02-07T09:38:39.276Z,79.73
2019-02-07T09:41:45.235Z,79.23
2019-02-07T09:44:51.015Z,81.15
2019-02-07T09:47:46.160Z,80.61
2019-02-07T09:50:36.946Z,81.19
2019-02-07T09:53:30.166Z,80.14
2019-02-07T09:56:19.795Z,79.23
2019-02-07T09:59:10.137Z,79.31
2019-02-07T10:01:59.440Z,79.77
2019-02-07T10:04:53.249Z,79.60
2019-02-07T10:07:40.443Z,79.43
2019-02-07T10:10:29.984Z,79.14
2019-02-07T10:13:19.119Z,79.23
2019-02-07T10:16:08.310Z,78.61
2019-02-07T10:18:48.762Z,78.90
2019-02-07T10:21:42.016Z,80.13
2019-02-07T10:24:35.416Z,78.43
2019-02-07T10:27:29.956Z,80.46
2019-02-07T10:30:23.502Z,80.01
2019-02-07T10:33:07.876Z,79.80
2019-02-07T10:36:16.907Z,79.44
2019-02-07T10:38:56.844Z,77.88
2019-02-07T10:41:52.557Z,76.85
2019-02-07T10:44:41.575Z,77.36
2019-02-07T10:47:33.454Z,77.40
2019-02-07T10:50:23.916Z,75.68
2019-02-07T10:53:17.308Z,76.28
2019-02-07T10:56:08.090Z,76.48
2019-02-07T10:59:07.713Z,75.65
2019-02-07T11:01:58.480Z,74.66
2019-02-07T11:04:52.396Z,75.25
2019-02-07T11:07:42.814Z,73.80
2019-02-07T11:10:34.280Z,73.88
2019-02-07T11:13:23.871Z,73.46
2019-02-07T11:16:20.043Z,72.56
2019-02-07T11:19:20.969Z,72.16
2019-02-07T11:21:58.797Z,71.64
2019-02-07T11:24:47.892Z,70.49
2019-02-07T11:27:44.405Z,69.85
2019-02-07T11:30:55.252Z,68.76
2019-02-07T11:33:54.270Z,68.48
2019-02-07T11:36:53.993Z,67.63
2019-02-07T11:39:45.768Z,66.31
2019-02-07T11:42:48.332Z,65.64
2019-02-07T11:45:38.094Z,65.00
2019-02-07T11:48:34.364Z,64.34
2019-02-07T11:51:23.969Z,64.16
2019-02-07T11:54:17.410Z,64.22
2019-02-07T11:57:13.848Z,63.51
2019-02-07T12:00:03.143Z,63.07
2019-02-07T12:03:11.896Z,62.46
2019-02-07T12:06:01.467Z,63.25
2019-02-07T12:08:59.785Z,65.15
2019-02-07T12:11:50.140Z,65.28
2019-02-07T12:14:58.635Z,65.19
2019-02-07T12:17:49.121Z,65.46
2019-02-07T12:20:30.366Z,66.19
2019-02-07T12:23:11.356Z,64.80
2019-02-07T12:26:07.497Z,64.80
2019-02-07T12:28:52.649Z,67.30
2019-02-07T12:31:53.635Z,67.83
2019-02-07T12:34:44.705Z,67.97
2019-02-07T12:37:38.144Z,67.76
2019-02-07T12:40:28.727Z,67.66
2019-02-07T12:43:25.207Z,66.51
2019-02-07T12:46:20.387Z,67.06
2019-02-07T12:49:28.960Z,67.55
2019-02-07T12:52:12.911Z,70.02
2019-02-07T12:54:55.424Z,68.70
2019-02-07T12:57:52.063Z,70.10
2019-02-07T13:00:39.465Z,70.33
2019-02-07T13:03:45.093Z,70.41
2019-02-07T13:06:39.586Z,70.74
2019-02-07T13:09:47.857Z,69.00
2019-02-07T13:12:29.711Z,68.22
2019-02-07T13:15:20.732Z,67.92
2019-02-07T13:18:12.044Z,67.80
2019-02-07T13:20:51.054Z,67.57
2019-02-07T13:23:40.384Z,67.55
2019-02-07T13:26:36.591Z,68.34
2019-02-07T13:29:28.765Z,67.55
2019-02-07T13:32:18.373Z,67.04
2019-02-07T13:35:06.613Z,68.94
2019-02-07T13:37:56.990Z,69.11
2019-02-07T13:40:44.661Z,69.17
2019-02-07T13:43:33.664Z,68.75
2019-02-07T13:46:30.931Z,68.44
2019-02-07T13:49:21.267Z,68.39
2019-02-07T13:52:12.177Z,67.80
2019-02-07T13:55:06.934Z,66.98
2019-02-07T13:57:57.421Z,66.71
2019-02-07T14:00:59.943Z,67.22
2019-02-07T14:03:48.952Z,66.64
2019-02-07T14:06:45.213Z,66.96
2019-02-07T14:09:34.143Z,66.31
2019-02-07T14:12:33.826Z,67.39
2019-02-07T14:15:28.933Z,68.50
2019-02-07T14:18:19.385Z,69.51
2019-02-07T14:21:04.935Z,71.14
2019-02-07T14:24:13.707Z,73.93
2019-02-07T14:27:03.654Z,75.49
2019-02-07T14:30:00.027Z,75.72
2019-02-07T14:32:53.379Z,75.95
2019-02-07T14:35:46.846Z,76.51
2019-02-07T14:38:36.112Z,76.00
2019-02-07T14:41:32.860Z,75.39
2019-02-07T14:44:23.329Z,75.54
2019-02-07T14:46:58.030Z,74.94
2019-02-07T14:49:30.757Z,74.54
2019-02-07T14:52:02.189Z,74.29
2019-02-07T14:54:33.690Z,74.57
2019-02-07T14:57:05.898Z,74.75
2019-02-07T14:59:37.448Z,75.30
2019-02-07T15:02:09.022Z,76.24
2019-02-07T15:04:40.942Z,77.71
2019-02-07T15:07:12.565Z,78.29
2019-02-07T15:09:47.246Z,79.15
2019-02-07T15:12:18.811Z,79.23
2019-02-07T15:14:50.332Z,77.96
2019-02-07T15:17:21.791Z,77.33
2019-02-07T15:19:53.262Z,77.65
2019-02-07T15:22:24.791Z,77.09
2019-02-07T15:24:56.323Z,77.55
2019-02-07T15:27:28.893Z,78.81
2019-02-07T15:30:00.448Z,79.58
2019-02-07T15:32:31.909Z,80.43
2019-02-07T15:35:03.533Z,80.74
2019-02-07T15:37:35.077Z,79.58
2019-02-07T15:40:12.920Z,79.80
2019-02-07T15:42:44.535Z,80.48
2019-02-07T15:45:16.362Z,80.12
2019-02-07T15:47:47.840Z,80.44
2019-02-07T15:50:23.281Z,81.00
2019-02-07T15:52:58.936Z,81.06
2019-02-07T15:55:30.652Z,82.63
2019-02-07T15:58:02.627Z,82.72
2019-02-07T16:00:49.849Z,82.73
2019-02-07T16:03:40.261Z,82.15
2019-02-07T16:06:12.026Z,82.53
2019-02-07T16:08:43.478Z,82.01
2019-02-07T16:11:14.993Z,82.43
2019-02-07T16:13:46.475Z,82.96
2019-02-07T16:16:17.950Z,83.04
2019-02-07T16:18:51.546Z,82.39
2019-02-07T16:21:23.092Z,82.60
2019-02-07T16:23:54.976Z,83.16
2019-02-07T16:26:26.463Z,83.65
2019-02-07T16:28:58.000Z,84.15
2019-02-07T16:31:29.747Z,83.71
2019-02-07T16:34:01.242Z,82.96
2019-02-07T16:36:34.766Z,83.29
2019-02-07T16:39:11.079Z,83.19
2019-02-07T16:41:42.484Z,84.23
2019-02-07T16:44:15.111Z,84.75
2019-02-07T16:46:46.749Z,84.68
2019-02-07T16:49:20.948Z,84.26
2019-02-07T16:51:52.405Z,84.38
2019-02-07T16:54:23.871Z,85.24
2019-02-07T16:56:55.378Z,87.05
2019-02-07T16:59:26.832Z,88.34
2019-02-07T17:01:59.407Z,89.36
2019-02-07T17:04:30.824Z,89.59
2019-02-07T17:07:02.335Z,89.28
2019-02-07T17:09:41.134Z,89.85
2019-02-07T17:12:13.288Z,89.77
2019-02-07T17:14:44.800Z,89.47
2019-02-07T17:17:16.347Z,89.69
2019-02-07T17:19:47.944Z,89.85
2019-02-07T17:22:19.525Z,89.85
2019-02-07T17:24:51.216Z,90.17
2019-02-07T17:27:22.989Z,90.06
2019-02-07T17:29:54.378Z,89.91
2019-02-07T17:32:25.834Z,90.53
2019-02-07T17:34:57.268Z,90.25
2019-02-07T17:37:29.069Z,90.36
2019-02-07T17:40:00.610Z,89.53
2019-02-07T17:42:32.491Z,89.06
2019-02-07T17:45:04.020Z,89.26
2019-02-07T17:47:35.725Z,89.70
2019-02-07T17:50:13.208Z,89.42
2019-02-07T17:52:44.759Z,88.96
2019-02-07T17:55:17.862Z,88.79
2019-02-07T17:57:49.402Z,88.70
2019-02-07T18:00:59.167Z,88.72
2019-02-07T18:03:30.773Z,88.34
2019-02-07T18:06:02.226Z,88.74
2019-02-07T18:08:33.890Z,89.05
2019-02-07T18:11:07.974Z,88.38
2019-02-07T18:13:40.542Z,88.56
2019-02-07T18:16:12.071Z,89.06
2019-02-07T18:18:43.579Z,88.49
2019-02-07T18:21:16.491Z,88.92
2019-02-07T18:23:47.970Z,89.18
2019-02-07T18:26:19.446Z,89.33
2019-02-07T18:28:50.908Z,89.23
2019-02-07T18:31:22.397Z,88.62
2019-02-07T18:33:54.133Z,89.33
2019-02-07T18:36:25.600Z,89.22
2019-02-07T18:38:57.140Z,88.70
2019-02-07T18:41:28.565Z,89.49
2019-02-07T18:44:00.314Z,89.38
2019-02-07T18:46:31.998Z,90.02
2019-02-07T18:49:03.484Z,89.70
2019-02-07T18:51:44.912Z,88.87
2019-02-07T18:54:08.673Z,89.00
2019-02-07T18:56:40.135Z,88.73
2019-02-07T18:59:11.952Z,88.78
2019-02-07T19:01:43.357Z,88.52
2019-02-07T19:04:14.846Z,88.32
2019-02-07T19:06:46.279Z,88.07
2019-02-07T19:09:17.717Z,88.21
2019-02-07T19:11:49.297Z,88.57
2019-02-07T19:14:23.885Z,88.14
2019-02-07T19:16:55.371Z,88.20
2019-02-07T19:19:28.562Z,88.67
2019-02-07T19:22:00.007Z,88.54
2019-02-07T19:24:31.935Z,88.42
2019-02-07T19:27:03.458Z,88.93
2019-02-07T19:29:34.923Z,88.77
2019-02-07T19:32:06.385Z,88.22
2019-02-07T19:34:39.607Z,88.28
2019-02-07T19:37:11.354Z,88.22
2019-02-07T19:39:42.802Z,89.02
2019-02-07T19:42:14.258Z,88.22
2019-02-07T19:44:45.787Z,88.52
2019-02-07T19:47:17.325Z,88.23
2019-02-07T19:49:48.969Z,88.33
2019-02-07T19:52:20.498Z,88.42
2019-02-07T19:54:51.989Z,88.53
2019-02-07T19:57:23.539Z,88.68
2019-02-07T19:59:55.044Z,89.18
2019-02-07T20:02:26.491Z,89.01
2019-02-07T20:04:57.919Z,88.61
2019-02-07T20:07:29.393Z,89.14
2019-02-07T20:10:00.843Z,89.26
2019-02-07T20:12:33.985Z,88.94
2019-02-07T20:15:10.671Z,89.03
2019-02-07T20:17:42.232Z,89.15
2019-02-07T20:20:14.629Z,88.98
2019-02-07T20:22:46.294Z,88.88
2019-02-07T20:25:18.461Z,88.86
2019-02-07T20:27:50.204Z,89.55
2019-02-07T20:30:28.890Z,90.53
2019-02-07T20:33:01.983Z,89.59
2019-02-07T20:35:33.599Z,89.67
2019-02-07T20:38:06.008Z,89.91
2019-02-07T20:40:37.634Z,89.15
2019-02-07T20:43:09.695Z,88.83
2019-02-07T20:45:41.214Z,89.55
2019-02-07T20:48:12.790Z,89.35
2019-02-07T20:50:44.314Z,89.58
2019-02-07T20:53:17.838Z,89.32
2019-02-07T20:55:49.723Z,89.98
2019-02-07T20:58:21.246Z,89.44
2019-02-07T21:00:52.914Z,88.82
2019-02-07T21:03:24.427Z,88.78
2019-02-07T21:05:59.699Z,89.41
2019-02-07T21:08:30.837Z,89.86
2019-02-07T21:11:02.516Z,89.28
2019-02-07T21:13:38.637Z,89.12
2019-02-07T21:16:10.053Z,89.19
2019-02-07T21:18:43.465Z,89.76
2019-02-07T21:21:15.178Z,89.95
2019-02-07T21:23:46.783Z,89.50
2019-02-07T21:26:18.335Z,89.33
2019-02-07T21:28:49.862Z,89.80
2019-02-07T21:31:21.283Z,89.43
2019-02-07T21:33:52.767Z,89.62
2019-02-07T21:36:24.199Z,89.92
2019-02-07T21:38:55.893Z,89.77
2019-02-07T21:41:27.350Z,90.17
2019-02-07T21:43:58.804Z,90.10
2019-02-07T21:46:30.323Z,90.27
2019-02-07T21:49:02.260Z,90.48
2019-02-07T21:51:33.803Z,89.84
2019-02-07T21:54:05.660Z,89.89
2019-02-07T21:56:37.332Z,90.17
2019-02-07T21:59:09.664Z,89.37
2019-02-07T22:01:41.230Z,90.02
2019-02-07T22:04:13.019Z,90.61
2019-02-07T22:06:44.557Z,90.19
2019-02-07T22:09:17.005Z,89.80
2019-02-07T22:11:48.573Z,90.27
2019-02-07T22:14:20.034Z,89.94
2019-02-07T22:16:51.480Z,90.62
2019-02-07T22:19:22.977Z,90.32
2019-02-07T22:21:54.767Z,89.98
2019-02-07T22:24:26.653Z,89.51
2019-02-07T22:26:58.113Z,89.13
2019-02-07T22:29:29.629Z,89.46
2019-02-07T22:32:01.058Z,89.65
2019-02-07T22:34:32.692Z,88.76
2019-02-07T22:37:04.159Z,88.95
2019-02-07T22:39:35.609Z,88.77
2019-02-07T22:42:07.057Z,89.35
2019-02-07T22:44:38.626Z,88.93
2019-02-07T22:47:12.022Z,89.55
2019-02-07T22:49:43.505Z,88.83
2019-02-07T22:52:14.936Z,89.15
2019-02-07T22:54:49.108Z,89.30
2019-02-07T22:57:20.515Z,88.86
2019-02-07T22:59:51.974Z,88.84
2019-02-07T23:02:23.478Z,88.31
2019-02-07T23:04:55.021Z,88.57
2019-02-07T23:07:26.445Z,88.60
2019-02-07T23:09:57.841Z,88.85
2019-02-07T23:12:29.896Z,90.00
2019-02-07T23:15:01.359Z,89.30
2019-02-07T23:17:33.087Z,88.63
2019-02-07T23:20:06.179Z,89.03
2019-02-07T23:22:39.237Z,89.55
2019-02-07T23:25:11.724Z,88.91
2019-02-07T23:27:43.139Z,90.06
2019-02-07T23:30:15.249Z,89.53
2019-02-07T23:32:46.870Z,88.92
2019-02-07T23:35:18.456Z,88.97
2019-02-07T23:37:49.798Z,88.52
2019-02-07T23:40:22.034Z,89.08
2019-02-07T23:42:53.662Z,89.25
2019-02-07T23:45:25.343Z,89.17
2019-02-07T23:47:56.762Z,89.21
2019-02-07T23:50:28.206Z,88.96
2019-02-07T23:52:59.648Z,89.00
2019-02-07T23:55:31.106Z,88.70
2019-02-07T23:58:02.846Z,89.15
